Whitegate, Saint Kitts and Nevis

10:41 PM AST on February 27, 2017 (GMT -0400)
Edwards St; SADDLERS | | Change Station

Elev 148 ft 17.41 °N, 62.79 °W | Updated 2 minutes ago

Clear
Clear
77.5 °F
Feels Like 79 °F
N
18.1
Wind Variable Wind from NE

Today
High -- | Low -- °F
--% Chance of Precip.
Yesterday
High -- | Low -- °F
Precip. -- in
Pressure 30.09 in
Visibility 6.2 miles
Clouds Mostly Cloudy 1800 ft
Heat Index 79 °F
Dew Point 70 °F
Humidity 78%
Rainfall 0.10 in
Snow Depth Not available.
6:30 AM 6:17 PM
Waxing Crescent, 3% visible
METAR TKPK 280100Z 07015KT 9999 BKN018 26/21 Q1019
Pressure 30.09 in
Visibility 6.2 miles
Clouds Mostly Cloudy 1800 ft
Heat Index 79 °F
Dew Point 70 °F
Humidity 78%
Rainfall 0.10 in
Snow Depth Not available.
6:30 AM 6:17 PM
Waxing Crescent, 3% visible
METAR TKPK 280100Z 07015KT 9999 BKN018 26/21 Q1019

Get Your Daily Forecast Email!

Thanks for signing up!

Be on the lookout for a verification email in your inbox.

You'll start receiving the daily forecast at 8 AM.

×

10-Day Weather Forecast

No radar image for this location.
×

Almanac

Astronomy

Feb. 27, 2017 Rise Set
Actual Time
Civil Twilight
Nautical Twilight
Astronomical Twilight
Moon
Length of Visible Light
Length of Day
Tomorrow will be .
, % of the Moon is Illuminated

Today's Extremes

Country Highs Country Lows

Community

WunderPhotos

Upload Photos

1,962,540 photos uploaded!

WunderBlog® & News

Nearby

Air Quality

  Air Quality AQ Index Pollutant
Not available.

Snow Depth

Station Depth Elevation

Earthquake Activity

City Distance Mag. Time & Date
Minimum magnitude displayed is 2.5.

Coastal Water Temperatures

Place Temperature

Stations

Nearby Weather Stations

Station Location Temp. Windchill Dew Point Humidity Wind Precip. Elev Updated Type